createdAt,value
2022-10-21T00:02:06.998Z,15.18
2022-10-21T00:04:33.742Z,14.40
2022-10-21T00:07:00.680Z,14.43
2022-10-21T00:09:27.528Z,15.18
2022-10-21T00:11:54.259Z,14.48
2022-10-21T00:14:20.934Z,15.05
2022-10-21T00:16:47.764Z,15.43
2022-10-21T00:19:16.931Z,14.98
2022-10-21T00:21:43.727Z,14.77
2022-10-21T00:24:10.608Z,15.43
2022-10-21T00:26:38.556Z,14.93
2022-10-21T00:29:05.588Z,14.85
2022-10-21T00:31:34.715Z,15.88
2022-10-21T00:34:01.468Z,15.10
2022-10-21T00:36:28.290Z,15.07
2022-10-21T00:38:57.224Z,15.75
2022-10-21T00:41:23.920Z,16.20
2022-10-21T00:44:03.379Z,15.10
2022-10-21T00:46:36.377Z,15.38
2022-10-21T00:49:07.234Z,16.05
2022-10-21T00:51:36.143Z,14.70
2022-10-21T00:54:07.550Z,15.98
2022-10-21T00:56:35.701Z,14.73
2022-10-21T00:59:05.184Z,16.83
2022-10-21T01:01:32.263Z,15.60
2022-10-21T01:04:01.242Z,15.38
2022-10-21T01:06:32.051Z,14.20
2022-10-21T01:08:59.949Z,13.48
2022-10-21T01:11:28.214Z,13.00
2022-10-21T01:14:02.978Z,13.13
2022-10-21T01:16:50.112Z,12.63
2022-10-21T01:19:28.041Z,11.00
2022-10-21T01:22:11.271Z,13.70
2022-10-21T01:24:48.949Z,13.57
2022-10-21T01:27:50.627Z,10.10
2022-10-21T01:30:17.394Z,13.55
2022-10-21T01:36:11.318Z,11.38
2022-10-21T01:39:10.911Z,11.20
2022-10-21T01:41:52.596Z,10.60
2022-10-21T01:47:20.474Z,11.55
2022-10-21T01:49:58.001Z,10.80
2022-10-21T01:52:27.067Z,12.23
2022-10-21T01:54:58.613Z,10.98
2022-10-21T01:57:29.796Z,9.10
2022-10-21T01:59:59.932Z,8.43
2022-10-21T02:02:33.301Z,9.25
2022-10-21T02:05:05.935Z,6.05
2022-10-21T02:07:32.893Z,5.50
2022-10-21T02:09:59.627Z,6.95
2022-10-21T02:12:29.709Z,10.32
2022-10-21T02:15:00.485Z,9.63
2022-10-21T02:17:29.113Z,11.20
2022-10-21T02:20:00.892Z,8.02
2022-10-21T02:22:28.606Z,10.93
2022-10-21T02:25:08.409Z,7.90
2022-10-21T02:27:35.510Z,11.60
2022-10-21T02:30:02.965Z,12.90
2022-10-21T02:32:41.408Z,10.77
2022-10-21T02:35:40.085Z,10.15
2022-10-21T02:38:30.940Z,7.30
2022-10-21T02:41:14.025Z,6.57
2022-10-21T02:43:54.438Z,10.93
2022-10-21T02:46:21.497Z,11.23
2022-10-21T02:48:48.795Z,10.95
2022-10-21T02:51:16.360Z,11.23
2022-10-21T02:53:46.447Z,11.90
2022-10-21T02:56:13.357Z,12.70
2022-10-21T02:58:40.166Z,8.75
2022-10-21T03:01:06.953Z,6.18
2022-10-21T03:03:33.747Z,5.68
2022-10-21T03:06:00.505Z,9.80
2022-10-21T03:08:27.517Z,7.43
2022-10-21T03:10:54.262Z,7.78
2022-10-21T03:13:22.355Z,9.93
2022-10-21T03:15:50.089Z,6.80
2022-10-21T03:18:17.293Z,5.70
2022-10-21T03:20:48.460Z,7.05
2022-10-21T03:23:15.203Z,7.60
2022-10-21T03:25:41.879Z,10.73
2022-10-21T03:28:10.802Z,10.18
2022-10-21T03:30:37.578Z,7.93
2022-10-21T03:33:04.416Z,6.82
2022-10-21T03:35:36.130Z,6.40
2022-10-21T03:38:02.882Z,4.88
2022-10-21T03:40:30.378Z,4.47
2022-10-21T03:42:58.268Z,3.75
2022-10-21T03:45:25.298Z,4.93
2022-10-21T03:47:52.789Z,5.30
2022-10-21T03:50:23.659Z,6.20
2022-10-21T03:52:50.629Z,5.22
2022-10-21T03:55:20.710Z,8.07
2022-10-21T03:57:48.395Z,7.10
2022-10-21T04:00:15.944Z,8.13
2022-10-21T04:02:42.946Z,8.40
2022-10-21T04:05:10.125Z,9.35
2022-10-21T04:07:37.174Z,8.57
2022-10-21T04:10:05.156Z,8.15
2022-10-21T04:12:32.003Z,9.23
2022-10-21T04:14:58.760Z,10.13
2022-10-21T04:17:26.036Z,10.20
2022-10-21T04:19:52.825Z,11.02
2022-10-21T04:22:19.508Z,12.23
2022-10-21T04:24:46.224Z,11.27
2022-10-21T04:27:13.016Z,12.75
2022-10-21T04:29:39.892Z,11.38
2022-10-21T04:32:06.623Z,14.10
2022-10-21T04:34:33.279Z,12.38
2022-10-21T04:37:02.649Z,15.05
2022-10-21T04:39:31.856Z,12.77
2022-10-21T04:41:58.796Z,12.68
2022-10-21T04:44:25.545Z,12.60
2022-10-21T04:46:52.457Z,14.27
2022-10-21T04:49:19.283Z,14.05
2022-10-21T04:51:45.946Z,13.80
2022-10-21T04:54:13.636Z,12.45
2022-10-21T04:56:41.249Z,13.10
2022-10-21T04:59:08.328Z,13.32
2022-10-21T05:01:35.058Z,12.93
2022-10-21T05:04:01.802Z,12.90
2022-10-21T05:06:28.645Z,11.88
2022-10-21T05:08:55.410Z,13.77
2022-10-21T05:11:22.163Z,12.40
2022-10-21T05:13:51.288Z,12.68
2022-10-21T05:16:18.098Z,13.55
2022-10-21T05:18:44.787Z,12.68
2022-10-21T05:21:11.643Z,12.93
2022-10-21T05:23:38.332Z,12.93
2022-10-21T05:26:05.379Z,11.85
2022-10-21T05:28:34.770Z,12.65
2022-10-21T05:31:04.628Z,11.68
2022-10-21T05:33:31.509Z,12.13
2022-10-21T05:36:05.037Z,11.13
2022-10-21T05:38:31.862Z,10.25
2022-10-21T05:40:59.215Z,11.07
2022-10-21T05:43:26.147Z,11.27
2022-10-21T05:45:53.062Z,11.80
2022-10-21T05:48:20.257Z,11.20
2022-10-21T05:50:47.793Z,11.20
2022-10-21T05:53:14.647Z,10.90
2022-10-21T05:55:41.392Z,11.07
2022-10-21T05:58:08.131Z,10.30
2022-10-21T06:00:35.402Z,10.80
2022-10-21T06:03:02.290Z,10.88
2022-10-21T06:05:28.959Z,9.73
2022-10-21T06:07:55.882Z,9.93
2022-10-21T06:10:26.759Z,10.50
2022-10-21T06:12:55.884Z,9.93
2022-10-21T06:15:22.683Z,10.07
2022-10-21T06:17:51.136Z,11.07
2022-10-21T06:20:18.027Z,10.38
2022-10-21T06:22:44.682Z,9.88
2022-10-21T06:25:11.494Z,10.95
2022-10-21T06:27:38.620Z,10.90
2022-10-21T06:30:06.279Z,10.00
2022-10-21T06:32:33.015Z,10.30
2022-10-21T06:35:02.430Z,10.07
2022-10-21T06:37:29.314Z,9.82
2022-10-21T06:39:56.100Z,9.82
2022-10-21T06:42:22.790Z,9.35
2022-10-21T06:44:49.555Z,10.18
2022-10-21T06:47:17.261Z,10.60
2022-10-21T06:49:44.066Z,10.07
2022-10-21T06:52:10.787Z,10.70
2022-10-21T06:54:37.550Z,10.48
2022-10-21T06:57:04.457Z,9.73
2022-10-21T06:59:31.460Z,10.65
2022-10-21T07:02:01.284Z,10.65
2022-10-21T07:04:28.958Z,10.85
2022-10-21T07:06:55.824Z,10.32
2022-10-21T07:09:22.605Z,11.00
2022-10-21T07:11:51.784Z,10.77
2022-10-21T07:14:18.526Z,11.70
2022-10-21T07:16:45.362Z,11.27
2022-10-21T07:19:12.105Z,10.27
2022-10-21T07:21:38.856Z,10.82
2022-10-21T07:24:05.851Z,10.82
2022-10-21T07:26:34.406Z,10.63
2022-10-21T07:29:01.685Z,10.90
2022-10-21T07:31:31.276Z,10.77
2022-10-21T07:33:59.999Z,12.85
2022-10-21T07:36:30.187Z,13.43
2022-10-21T07:39:00.298Z,11.57
2022-10-21T07:41:34.431Z,10.13
2022-10-21T07:44:03.783Z,11.10
2022-10-21T07:46:31.049Z,11.15
2022-10-21T07:48:58.420Z,11.57
2022-10-21T07:51:28.795Z,11.23
2022-10-21T07:53:59.270Z,11.77
2022-10-21T07:56:32.243Z,11.15
2022-10-21T07:58:59.742Z,11.98
2022-10-21T08:01:26.634Z,11.70
2022-10-21T08:03:55.170Z,11.15
2022-10-21T08:06:23.289Z,10.60
2022-10-21T08:08:53.399Z,10.13
2022-10-21T08:11:22.110Z,8.98
2022-10-21T08:13:49.049Z,9.55
2022-10-21T08:16:15.867Z,9.52
2022-10-21T08:18:42.680Z,10.05
2022-10-21T08:21:09.430Z,10.77
2022-10-21T08:23:36.974Z,10.18
2022-10-21T08:26:07.942Z,8.68
2022-10-21T08:28:34.860Z,8.68
2022-10-21T08:31:08.010Z,8.52
2022-10-21T08:33:35.069Z,8.88
2022-10-21T08:36:12.044Z,8.75
2022-10-21T08:38:38.841Z,8.25
2022-10-21T08:41:29.515Z,8.30
2022-10-21T08:44:06.463Z,8.35
2022-10-21T08:46:43.444Z,7.60
2022-10-21T08:49:30.007Z,7.95
2022-10-21T08:52:04.532Z,7.28
2022-10-21T08:54:42.949Z,7.63
2022-10-21T08:57:11.911Z,7.78
2022-10-21T08:59:42.180Z,6.47
2022-10-21T09:02:12.025Z,6.30
2022-10-21T09:05:18.945Z,6.80
2022-10-21T09:08:07.419Z,6.85
2022-10-21T09:10:43.255Z,6.60
2022-10-21T09:13:20.367Z,7.03
2022-10-21T09:15:58.226Z,6.38
2022-10-21T09:18:37.339Z,6.80
2022-10-21T09:21:13.116Z,6.55
2022-10-21T09:24:07.593Z,6.93
2022-10-21T09:26:36.651Z,6.65
2022-10-21T09:29:22.917Z,6.20
2022-10-21T09:31:55.173Z,6.20
2022-10-21T09:35:08.110Z,7.50
2022-10-21T09:37:45.884Z,7.18
2022-10-21T09:40:20.255Z,6.53
2022-10-21T09:42:51.223Z,7.00
2022-10-21T09:45:29.193Z,6.80
2022-10-21T09:48:19.918Z,6.65
2022-10-21T09:50:51.139Z,6.25
2022-10-21T09:53:33.950Z,6.63
2022-10-21T09:56:06.486Z,7.13
2022-10-21T09:58:39.330Z,6.47
2022-10-21T10:01:06.675Z,6.38
2022-10-21T10:03:42.189Z,6.35
2022-10-21T10:06:09.372Z,6.25
2022-10-21T10:08:47.460Z,6.28
2022-10-21T10:11:18.596Z,5.60
2022-10-21T10:13:53.235Z,6.25
2022-10-21T10:16:30.292Z,5.32
2022-10-21T10:19:32.646Z,6.15
2022-10-21T10:22:16.430Z,5.43
2022-10-21T10:24:44.877Z,4.93
2022-10-21T10:27:26.667Z,5.60
2022-10-21T10:29:56.486Z,4.93
2022-10-21T10:32:26.614Z,5.07
2022-10-21T10:34:57.628Z,5.57
2022-10-21T10:37:29.222Z,5.20
2022-10-21T10:39:58.544Z,4.65
2022-10-21T10:42:31.798Z,4.68
2022-10-21T10:45:12.841Z,4.35
2022-10-21T10:47:47.642Z,4.82
2022-10-21T10:50:47.078Z,4.70
2022-10-21T10:53:28.790Z,4.70
2022-10-21T10:58:43.704Z,4.70
2022-10-21T11:01:17.012Z,4.70
2022-10-21T11:03:55.044Z,4.35
2022-10-21T11:06:33.692Z,5.07
2022-10-21T11:09:02.524Z,4.82
2022-10-21T11:11:44.869Z,4.82
2022-10-21T11:14:21.684Z,4.70
2022-10-21T11:17:00.394Z,4.57
2022-10-21T11:19:39.177Z,4.40
2022-10-21T11:22:21.058Z,4.22
2022-10-21T11:25:07.188Z,4.43
2022-10-21T11:27:55.585Z,4.60
2022-10-21T11:30:34.682Z,4.75
2022-10-21T11:33:10.028Z,4.65
2022-10-21T11:35:39.490Z,4.70
2022-10-21T11:38:28.104Z,4.53
2022-10-21T11:41:27.996Z,4.32
2022-10-21T11:44:14.448Z,4.25
2022-10-21T11:46:56.419Z,4.38
2022-10-21T11:49:38.957Z,3.70
2022-10-21T11:52:17.755Z,3.70
2022-10-21T11:55:09.942Z,3.47
2022-10-21T11:58:04.481Z,3.38
2022-10-21T12:00:44.169Z,3.65
2022-10-21T12:03:28.137Z,3.45
2022-10-21T12:06:32.113Z,3.47
2022-10-21T12:09:06.908Z,3.10
2022-10-21T12:12:05.634Z,3.92
2022-10-21T12:14:42.293Z,2.95
2022-10-21T12:17:17.505Z,2.85
2022-10-21T12:19:53.869Z,3.20
2022-10-21T12:22:22.658Z,3.15
2022-10-21T12:25:08.034Z,2.78
2022-10-21T12:27:34.811Z,3.20
2022-10-21T12:30:04.344Z,3.00
2022-10-21T12:32:31.026Z,2.53
2022-10-21T12:35:03.752Z,3.05
2022-10-21T12:37:51.620Z,3.22
2022-10-21T12:40:37.486Z,2.90
2022-10-21T12:43:14.891Z,2.88
2022-10-21T12:45:42.361Z,2.95
2022-10-21T12:48:45.606Z,3.00
2022-10-21T12:51:25.913Z,2.80
2022-10-21T12:54:16.414Z,2.83
2022-10-21T12:56:49.180Z,3.55
2022-10-21T12:59:31.877Z,2.40
2022-10-21T13:02:09.888Z,2.38
2022-10-21T13:04:36.510Z,2.63
2022-10-21T13:07:05.335Z,2.60
2022-10-21T13:09:39.221Z,2.65
2022-10-21T13:12:08.546Z,2.20
2022-10-21T13:15:19.838Z,2.92
2022-10-21T13:17:54.927Z,2.30
2022-10-21T13:20:21.571Z,2.65
2022-10-21T13:23:03.304Z,2.30
2022-10-21T13:25:35.181Z,1.88
2022-10-21T13:28:06.422Z,2.00
2022-10-21T13:30:36.566Z,2.30
2022-10-21T13:33:25.250Z,2.60
2022-10-21T13:36:01.807Z,1.88
2022-10-21T13:38:38.291Z,2.20
2022-10-21T13:41:18.230Z,2.17
2022-10-21T13:44:00.214Z,2.22
2022-10-21T13:46:40.710Z,2.58
2022-10-21T13:49:32.348Z,2.22
2022-10-21T13:51:59.349Z,1.98
2022-10-21T13:54:26.210Z,2.13
2022-10-21T13:56:53.133Z,1.83
2022-10-21T13:59:27.156Z,2.20
2022-10-21T14:01:56.321Z,2.40
2022-10-21T14:04:26.345Z,2.15
2022-10-21T14:06:59.686Z,2.20
2022-10-21T14:09:31.549Z,2.25
2022-10-21T14:12:04.279Z,1.88
2022-10-21T14:14:33.652Z,2.10
2022-10-21T14:17:08.760Z,1.90
2022-10-21T14:19:38.677Z,1.85
2022-10-21T14:24:49.938Z,2.03
2022-10-21T14:27:37.683Z,2.13
2022-10-21T14:30:10.054Z,2.00
2022-10-21T14:32:38.550Z,1.98
2022-10-21T14:35:11.478Z,2.03
2022-10-21T14:37:55.772Z,1.80
2022-10-21T14:40:39.665Z,2.13
2022-10-21T14:43:17.056Z,2.10
2022-10-21T14:45:51.950Z,2.10
2022-10-21T14:48:31.316Z,1.95
2022-10-21T14:51:16.534Z,2.17
2022-10-21T14:53:58.852Z,1.80
2022-10-21T14:56:41.360Z,1.90
2022-10-21T14:59:23.559Z,2.05
2022-10-21T15:01:50.699Z,2.38
2022-10-21T15:04:50.995Z,1.55
2022-10-21T15:07:32.417Z,2.05
2022-10-21T15:12:39.344Z,1.70
2022-10-21T15:15:43.830Z,1.77
2022-10-21T15:18:16.549Z,1.48
2022-10-21T15:20:54.621Z,1.40
2022-10-21T15:23:44.016Z,1.70
2022-10-21T15:26:23.210Z,1.85
2022-10-21T15:28:53.072Z,1.60
2022-10-21T15:31:25.429Z,1.60
2022-10-21T15:33:53.749Z,1.55
2022-10-21T15:36:23.433Z,1.60
2022-10-21T15:38:50.575Z,1.80
2022-10-21T15:41:29.198Z,1.90
2022-10-21T15:44:00.755Z,1.80
2022-10-21T15:46:29.545Z,1.60
2022-10-21T15:48:58.304Z,1.80
2022-10-21T15:51:25.006Z,1.58
2022-10-21T15:53:51.703Z,1.80
2022-10-21T15:56:19.852Z,1.73
2022-10-21T15:58:47.282Z,2.05
2022-10-21T16:01:17.763Z,1.63
2022-10-21T16:03:46.435Z,1.57
2022-10-21T16:06:18.308Z,1.73
2022-10-21T16:08:45.528Z,2.15
2022-10-21T16:11:25.621Z,1.48
2022-10-21T16:14:01.922Z,2.20
2022-10-21T16:16:28.825Z,1.90
2022-10-21T16:18:55.640Z,1.95
2022-10-21T16:21:25.670Z,1.80
2022-10-21T16:23:53.186Z,2.00
2022-10-21T16:26:22.558Z,2.10
2022-10-21T16:28:54.064Z,2.50
2022-10-21T16:31:21.691Z,3.08
2022-10-21T16:33:48.589Z,3.80
2022-10-21T16:36:17.798Z,5.25
2022-10-21T16:38:45.998Z,5.43
2022-10-21T16:41:20.944Z,4.10
2022-10-21T16:43:48.050Z,3.47
2022-10-21T16:46:21.188Z,3.03
2022-10-21T16:48:51.288Z,3.08
2022-10-21T16:51:18.344Z,2.95
2022-10-21T16:53:45.009Z,3.08
2022-10-21T16:56:14.324Z,2.78
2022-10-21T16:58:41.447Z,2.88
2022-10-21T17:01:13.591Z,2.50
2022-10-21T17:03:40.628Z,2.70
2022-10-21T17:06:08.984Z,2.80
2022-10-21T17:08:38.247Z,3.10
2022-10-21T17:11:07.893Z,2.97
2022-10-21T17:13:37.082Z,2.97
2022-10-21T17:16:04.129Z,3.00
2022-10-21T17:18:30.847Z,2.83
2022-10-21T17:20:59.740Z,3.42
2022-10-21T17:23:29.175Z,3.40
2022-10-21T17:25:58.934Z,3.75
2022-10-21T17:28:27.912Z,3.47
2022-10-21T17:30:56.826Z,3.28
2022-10-21T17:33:26.641Z,3.65
2022-10-21T17:35:55.818Z,3.58
2022-10-21T17:38:25.229Z,3.50
2022-10-21T17:40:54.573Z,3.47
2022-10-21T17:43:21.346Z,3.15
2022-10-21T17:45:50.503Z,3.15
2022-10-21T17:48:17.243Z,3.42
2022-10-21T17:50:52.827Z,3.20
2022-10-21T17:53:22.336Z,3.28
2022-10-21T17:55:59.223Z,3.92
2022-10-21T17:58:26.884Z,3.22
2022-10-21T18:00:56.595Z,3.28
2022-10-21T18:03:28.328Z,2.78
2022-10-21T18:05:56.225Z,2.63
2022-10-21T18:08:23.744Z,2.10
2022-10-21T18:10:56.763Z,2.25
2022-10-21T18:13:27.449Z,2.08
2022-10-21T18:15:54.662Z,2.00
2022-10-21T18:18:25.854Z,2.20
2022-10-21T18:20:52.519Z,1.88
2022-10-21T18:23:19.257Z,1.90
2022-10-21T18:25:48.114Z,1.95
2022-10-21T18:28:17.533Z,1.92
2022-10-21T18:30:44.468Z,1.92
2022-10-21T18:33:11.342Z,2.17
2022-10-21T18:35:40.325Z,1.83
2022-10-21T18:38:09.399Z,2.22
2022-10-21T18:40:43.743Z,2.15
2022-10-21T18:43:18.033Z,1.70
2022-10-21T18:45:47.609Z,1.90
2022-10-21T18:48:14.306Z,2.15
2022-10-21T18:50:41.009Z,1.98
2022-10-21T18:53:07.703Z,2.00
2022-10-21T18:55:34.446Z,2.08
2022-10-21T18:58:01.146Z,1.90
2022-10-21T19:00:34.106Z,1.80
2022-10-21T19:03:01.032Z,1.92
2022-10-21T19:05:30.485Z,1.70
2022-10-21T19:07:57.400Z,2.20
2022-10-21T19:10:24.095Z,1.80
2022-10-21T19:12:52.411Z,2.13
2022-10-21T19:15:19.644Z,2.28
2022-10-21T19:17:47.435Z,1.80
2022-10-21T19:20:14.887Z,1.90
2022-10-21T19:22:41.630Z,1.98
2022-10-21T19:25:08.792Z,2.38
2022-10-21T19:27:35.535Z,2.28
2022-10-21T19:30:02.605Z,2.55
2022-10-21T19:32:29.440Z,2.10
2022-10-21T19:34:58.358Z,2.45
2022-10-21T19:37:25.183Z,2.25
2022-10-21T19:39:52.803Z,2.10
2022-10-21T19:42:19.537Z,2.38
2022-10-21T19:44:46.259Z,2.50
2022-10-21T19:47:13.033Z,2.90
2022-10-21T19:49:40.012Z,2.20
2022-10-21T19:52:06.689Z,2.22
2022-10-21T19:54:33.459Z,2.40
2022-10-21T19:57:00.351Z,2.55
2022-10-21T19:59:27.270Z,2.47
2022-10-21T20:01:53.986Z,2.70
2022-10-21T20:04:21.048Z,2.20
2022-10-21T20:06:47.964Z,2.63
2022-10-21T20:09:15.397Z,2.50
2022-10-21T20:11:42.439Z,2.85
2022-10-21T20:14:11.920Z,2.60
2022-10-21T20:16:41.981Z,2.40
2022-10-21T20:19:10.750Z,2.10
2022-10-21T20:21:37.557Z,2.10
2022-10-21T20:24:05.219Z,2.50
2022-10-21T20:26:32.197Z,2.70
2022-10-21T20:29:00.629Z,2.10
2022-10-21T20:31:27.960Z,2.55
2022-10-21T20:33:54.683Z,2.72
2022-10-21T20:36:24.610Z,2.80
2022-10-21T20:38:52.448Z,2.63
2022-10-21T20:41:22.390Z,2.45
2022-10-21T20:43:50.962Z,2.83
2022-10-21T20:46:19.029Z,2.50
2022-10-21T20:48:48.222Z,3.00
2022-10-21T20:51:21.046Z,2.83
2022-10-21T20:53:50.644Z,2.40
2022-10-21T20:56:17.978Z,2.67
2022-10-21T20:58:45.003Z,2.78
2022-10-21T21:01:25.358Z,3.17
2022-10-21T21:03:53.985Z,2.78
2022-10-21T21:06:21.048Z,3.30
2022-10-21T21:09:08.511Z,3.13
2022-10-21T21:11:35.350Z,2.80
2022-10-21T21:14:02.043Z,3.28
2022-10-21T21:16:28.982Z,2.53
2022-10-21T21:19:03.022Z,3.05
2022-10-21T21:21:31.218Z,2.92
2022-10-21T21:23:58.268Z,3.47
2022-10-21T21:26:28.282Z,3.63
2022-10-21T21:28:55.827Z,3.65
2022-10-21T21:31:24.869Z,3.20
2022-10-21T21:33:51.616Z,3.60
2022-10-21T21:36:22.442Z,3.13
2022-10-21T21:38:50.362Z,3.33
2022-10-21T21:41:18.091Z,3.17
2022-10-21T21:43:46.618Z,3.08
2022-10-21T21:46:22.523Z,3.67
2022-10-21T21:49:04.663Z,2.88
2022-10-21T21:51:33.019Z,3.10
2022-10-21T21:54:00.027Z,2.80
2022-10-21T21:56:28.092Z,2.55
2022-10-21T21:58:57.635Z,3.08
2022-10-21T22:01:26.881Z,2.75
2022-10-21T22:03:54.135Z,2.70
2022-10-21T22:06:23.423Z,2.70
2022-10-21T22:08:50.927Z,2.85
2022-10-21T22:11:22.606Z,2.50
2022-10-21T22:16:16.485Z,3.20
2022-10-21T22:18:43.679Z,2.35
2022-10-21T22:21:13.278Z,3.10
2022-10-21T22:23:40.845Z,2.75
2022-10-21T22:26:08.324Z,2.85
2022-10-21T22:28:35.485Z,2.83
2022-10-21T22:31:08.237Z,2.88
2022-10-21T22:33:35.365Z,3.03
2022-10-21T22:36:02.552Z,2.78
2022-10-21T22:38:29.718Z,3.28
2022-10-21T22:40:58.505Z,3.25
2022-10-21T22:43:26.227Z,3.42
2022-10-21T22:45:57.640Z,3.13
2022-10-21T22:48:36.416Z,3.40
2022-10-21T22:51:03.103Z,3.67
2022-10-21T22:53:29.743Z,3.50
2022-10-21T22:55:56.648Z,3.10
2022-10-21T22:58:23.536Z,3.40
2022-10-21T23:00:50.983Z,3.25
2022-10-21T23:03:19.214Z,3.40
2022-10-21T23:05:46.990Z,3.17
2022-10-21T23:08:14.454Z,3.10
2022-10-21T23:10:41.309Z,3.45
2022-10-21T23:13:07.971Z,3.83
2022-10-21T23:15:36.212Z,4.25
2022-10-21T23:18:03.378Z,3.88
2022-10-21T23:20:30.280Z,3.90
2022-10-21T23:22:57.038Z,3.60
2022-10-21T23:25:23.861Z,4.45
2022-10-21T23:27:50.831Z,4.00
2022-10-21T23:30:18.853Z,3.90
2022-10-21T23:32:46.584Z,4.32
2022-10-21T23:35:14.033Z,4.00
2022-10-21T23:37:42.042Z,4.55
2022-10-21T23:40:10.009Z,4.50
2022-10-21T23:42:41.835Z,3.65
2022-10-21T23:45:11.413Z,4.30
2022-10-21T23:47:39.758Z,4.20
2022-10-21T23:50:08.482Z,4.32
2022-10-21T23:52:36.387Z,4.38
2022-10-21T23:55:05.100Z,4.35
2022-10-21T23:57:31.951Z,4.40
2022-10-21T23:59:58.854Z,4.68
